Time;durP1;ratioP1;P1;durP2;ratioP2;P2;SDS_P1;SDS_P2;PMS_P1;PMS_P2;Temp;Humidity;BMP_temperature;BMP_pressure;BME280_temperature;BME280_humidity;BME280_pressure;Samples;Min_cycle;Max_cycle;Signal;HPM_P1;HPM_P2
2024/02/08 00:00:51;;;;;;;5.10;3.20;;;;;16.10;99224.00;;;;2084610;28;20692;-61
2024/02/08 00:01:51;;;;;;;4.40;2.63;;;;;16.10;99232.00;;;;2079877;28;20735;-60
2024/02/08 00:02:51;;;;;;;3.47;2.40;;;;;16.10;99229.00;;;;2078025;28;20221;-59
2024/02/08 00:03:52;;;;;;;4.90;2.90;;;;;16.10;99230.00;;;;2076852;28;20215;-60
2024/02/08 00:04:52;;;;;;;4.33;3.10;;;;;16.10;99230.00;;;;2058219;28;20317;-59
2024/02/08 00:05:52;;;;;;;6.43;3.67;;;;;16.10;99226.00;;;;2075770;28;20240;-60
2024/02/08 00:06:53;;;;;;;4.40;2.90;;;;;16.10;99237.00;;;;2078788;28;20221;-59
2024/02/08 00:07:53;;;;;;;4.83;3.03;;;;;16.10;99230.00;;;;2078031;28;20210;-60
2024/02/08 00:08:53;;;;;;;4.47;2.70;;;;;16.10;99227.00;;;;2075275;28;20217;-60
2024/02/08 00:09:56;;;;;;;4.30;3.00;;;;;16.10;99231.00;;;;2066123;28;20206;-61
2024/02/08 00:10:57;;;;;;;5.28;3.13;;;;;16.10;99225.00;;;;2085115;28;20303;-59
2024/02/08 00:11:57;;;;;;;4.60;3.10;;;;;16.10;99224.00;;;;2078806;28;20212;-59
2024/02/08 00:12:57;;;;;;;5.53;2.83;;;;;16.10;99222.00;;;;2078022;28;20233;-60
2024/02/08 00:13:58;;;;;;;4.10;3.30;;;;;16.10;99226.00;;;;2075614;28;20220;-60
2024/02/08 00:14:58;;;;;;;5.10;3.10;;;;;16.10;99229.00;;;;2073582;28;20213;-59
2024/02/08 00:15:58;;;;;;;4.30;3.10;;;;;16.10;99230.00;;;;2083311;28;20224;-59
2024/02/08 00:16:59;;;;;;;5.30;3.40;;;;;15.50;99229.00;;;;2079202;28;20238;-60
2024/02/08 00:17:59;;;;;;;4.40;3.20;;;;;16.10;99229.00;;;;2077763;28;20214;-61
2024/02/08 00:19:02;;;;;;;4.60;3.40;;;;;16.10;99226.00;;;;2077005;28;20210;-61
2024/02/08 00:20:02;;;;;;;5.00;3.55;;;;;16.10;99222.00;;;;2068152;28;20590;-60
2024/02/08 00:21:03;;;;;;;6.33;3.47;;;;;16.10;99215.00;;;;2077340;28;20252;-60
2024/02/08 00:22:03;;;;;;;6.20;3.00;;;;;16.10;99229.00;;;;2077507;28;20217;-61
2024/02/08 00:23:03;;;;;;;4.90;2.53;;;;;16.10;99221.00;;;;2077148;28;20229;-59
2024/02/08 00:24:04;;;;;;;4.30;3.07;;;;;16.10;99222.00;;;;2077739;28;20214;-60
2024/02/08 00:25:04;;;;;;;6.00;3.50;;;;;16.10;99221.00;;;;2067928;28;20267;-60
2024/02/08 00:26:05;;;;;;;5.27;3.27;;;;;16.10;99224.00;;;;2073503;28;20328;-60
2024/02/08 00:27:05;;;;;;;6.40;3.47;;;;;16.10;99209.00;;;;2077718;28;20681;-59
2024/02/08 00:28:11;;;;;;;4.93;3.10;;;;;16.10;99215.00;;;;2074691;28;20225;-60
2024/02/08 00:29:11;;;;;;;5.25;3.22;;;;;16.10;99209.00;;;;2068312;28;20217;-59
2024/02/08 00:30:18;;;;;;;6.17;2.93;;;;;16.10;99209.00;;;;2079868;28;21019;-60
2024/02/08 00:31:19;;;;;;;4.30;3.10;;;;;16.10;99209.00;;;;2084250;28;21102;-60
2024/02/08 00:32:19;;;;;;;5.20;3.00;;;;;16.10;99214.00;;;;2073917;28;20369;-60
2024/02/08 00:33:20;;;;;;;4.40;2.70;;;;;16.10;99205.00;;;;2077810;28;20473;-60
2024/02/08 00:34:20;;;;;;;4.27;3.10;;;;;16.00;99212.00;;;;2062689;28;20238;-59
2024/02/08 00:35:20;;;;;;;5.60;3.67;;;;;16.10;99209.00;;;;2072100;28;20766;-59
2024/02/08 00:36:21;;;;;;;4.60;3.10;;;;;16.10;99206.00;;;;2076201;28;20687;-61
2024/02/08 00:37:22;;;;;;;5.45;3.33;;;;;16.00;99204.00;;;;2075723;28;20233;-59
2024/02/08 00:38:22;;;;;;;4.50;2.83;;;;;16.10;99197.00;;;;2075875;28;20596;-60
2024/02/08 00:39:22;;;;;;;4.37;3.17;;;;;16.10;99200.00;;;;2068475;28;20629;-59
2024/02/08 00:40:24;;;;;;;3.87;2.77;;;;;15.50;99193.00;;;;2078204;28;20623;-60
2024/02/08 00:41:24;;;;;;;6.95;3.50;;;;;16.00;99193.00;;;;2083012;28;20799;-61
2024/02/08 00:42:25;;;;;;;5.30;3.17;;;;;16.00;99194.00;;;;2076442;28;20234;-60
2024/02/08 00:43:25;;;;;;;5.40;3.67;;;;;16.10;99194.00;;;;2077278;28;20590;-60
2024/02/08 00:44:27;;;;;;;4.93;2.73;;;;;16.10;99191.00;;;;2068841;28;20229;-60
2024/02/08 00:45:30;;;;;;;4.20;2.72;;;;;16.10;99194.00;;;;2082589;28;20252;-60
2024/02/08 00:46:30;;;;;;;4.43;2.95;;;;;16.10;99194.00;;;;2080629;28;20218;-60
2024/02/08 00:47:30;;;;;;;4.83;3.17;;;;;16.10;99195.00;;;;2072117;28;20611;-61
2024/02/08 00:48:31;;;;;;;4.73;3.43;;;;;16.10;99195.00;;;;2074567;28;20631;-60
2024/02/08 00:49:31;;;;;;;4.57;2.77;;;;;16.10;99194.00;;;;2068938;28;20620;-60
2024/02/08 00:50:32;;;;;;;6.00;3.07;;;;;16.10;99198.00;;;;2085131;28;20239;-60
2024/02/08 00:51:32;;;;;;;5.03;3.17;;;;;16.10;99197.00;;;;2081549;28;20241;-59
2024/02/08 00:52:33;;;;;;;4.80;3.20;;;;;16.10;99191.00;;;;2077213;28;20217;-59
2024/02/08 00:53:33;;;;;;;6.80;3.40;;;;;16.10;99187.00;;;;2076860;28;20592;-59
2024/02/08 00:54:36;;;;;;;4.57;2.63;;;;;16.10;99181.00;;;;2065298;28;20226;-60
2024/02/08 00:55:36;;;;;;;5.72;3.35;;;;;16.10;99182.00;;;;2081211;28;20239;-59
2024/02/08 00:56:37;;;;;;;5.83;3.17;;;;;16.00;99185.00;;;;2080421;28;20232;-60
2024/02/08 00:57:38;;;;;;;5.40;3.30;;;;;16.00;99192.00;;;;2077505;28;20221;-60
2024/02/08 00:58:39;;;;;;;4.43;3.25;;;;;16.00;99200.00;;;;2075646;28;20268;-59
2024/02/08 00:59:39;;;;;;;5.07;3.20;;;;;16.10;99194.00;;;;2071463;28;20726;-59
2024/02/08 01:00:40;;;;;;;5.57;3.03;;;;;16.10;99189.00;;;;2085039;28;20250;-61
2024/02/08 01:01:40;;;;;;;6.30;3.30;;;;;16.00;99192.00;;;;2076482;28;20695;-60
2024/02/08 01:02:41;;;;;;;4.50;3.10;;;;;16.00;99199.00;;;;2075506;28;20237;-60
2024/02/08 01:03:42;;;;;;;4.60;3.20;;;;;16.10;99202.00;;;;2077111;28;20241;-59
2024/02/08 01:04:48;;;;;;;7.90;3.37;;;;;16.00;99193.00;;;;2066245;28;20478;-60
2024/02/08 01:05:52;;;;;;;4.57;3.42;;;;;16.00;99195.00;;;;2073200;28;20221;-60
2024/02/08 01:06:52;;;;;;;4.97;3.25;;;;;16.00;99191.00;;;;2080387;28;20216;-60
2024/02/08 01:07:53;;;;;;;5.20;3.10;;;;;16.00;99200.00;;;;2076120;28;20238;-60
2024/02/08 01:08:54;;;;;;;4.80;3.20;;;;;16.00;99197.00;;;;2073532;28;20217;-60
2024/02/08 01:09:54;;;;;;;4.63;2.95;;;;;16.00;99190.00;;;;2071069;28;20235;-60
2024/02/08 01:10:54;;;;;;;3.60;2.83;;;;;16.00;99193.00;;;;2085118;28;20225;-61
2024/02/08 01:11:55;;;;;;;4.50;3.47;;;;;16.10;99196.00;;;;2075791;28;20217;-60
2024/02/08 01:12:55;;;;;;;4.00;2.90;;;;;16.00;99192.00;;;;2062703;28;20241;-61
2024/02/08 01:13:56;;;;;;;5.50;3.23;;;;;16.10;99186.00;;;;2071910;28;20209;-60
2024/02/08 01:14:56;;;;;;;5.53;3.03;;;;;16.00;99189.00;;;;2065089;28;20220;-60
2024/02/08 01:15:56;;;;;;;4.43;2.67;;;;;16.00;99187.00;;;;2082759;28;20236;-59
2024/02/08 01:16:57;;;;;;;3.47;2.40;;;;;16.00;99199.00;;;;2070817;28;20217;-60
2024/02/08 01:17:58;;;;;;;4.50;3.30;;;;;16.00;99193.00;;;;2083985;28;20236;-60
2024/02/08 01:18:59;;;;;;;5.10;3.30;;;;;16.00;99197.00;;;;2076390;28;20283;-60
2024/02/08 01:20:00;;;;;;;5.83;2.83;;;;;16.00;99197.00;;;;2073429;28;20254;-61
2024/02/08 01:21:01;;;;;;;4.93;2.92;;;;;16.00;99190.00;;;;2084186;28;20217;-59
2024/02/08 01:22:01;;;;;;;4.83;3.17;;;;;16.00;99200.00;;;;2077743;28;20236;-60
2024/02/08 01:23:04;;;;;;;4.13;2.93;;;;;16.00;99198.00;;;;2076576;28;20225;-61
2024/02/08 01:24:04;;;;;;;4.35;2.92;;;;;16.00;99196.00;;;;2077266;28;20268;-60
2024/02/08 01:25:05;;;;;;;5.43;3.20;;;;;16.00;99198.00;;;;2074098;28;20602;-60
2024/02/08 01:26:07;;;;;;;4.70;2.90;;;;;16.00;99189.00;;;;2082775;28;21057;-60
2024/02/08 01:27:08;;;;;;;4.45;3.13;;;;;16.00;99195.00;;;;2077679;28;20252;-59
2024/02/08 01:28:08;;;;;;;4.85;2.83;;;;;16.00;99201.00;;;;2076596;28;20267;-59
2024/02/08 01:29:08;;;;;;;6.30;3.57;;;;;16.00;99195.00;;;;2074048;28;20717;-60
2024/02/08 01:30:10;;;;;;;5.43;3.53;;;;;16.00;99195.00;;;;2079293;28;20235;-60
2024/02/08 01:31:11;;;;;;;7.97;4.15;;;;;16.00;99201.00;;;;2084409;28;20224;-59
2024/02/08 01:32:15;;;;;;;4.07;2.90;;;;;16.00;99202.00;;;;2075827;28;20214;-60
2024/02/08 01:33:15;;;;;;;5.32;3.15;;;;;16.00;99200.00;;;;2076436;28;20194;-59
2024/02/08 01:34:16;;;;;;;3.60;2.90;;;;;16.00;99200.00;;;;2068204;28;20242;-60
2024/02/08 01:35:21;;;;;;;4.50;3.23;;;;;16.00;99204.00;;;;2083940;28;20267;-60
2024/02/08 01:36:23;;;;;;;3.45;2.60;;;;;16.00;99196.00;;;;2081741;28;20927;-60
2024/02/08 01:37:23;;;;;;;5.30;3.85;;;;;16.00;99204.00;;;;2076272;28;20225;-60
2024/02/08 01:38:24;;;;;;;4.70;2.93;;;;;16.00;99192.00;;;;2076861;28;20268;-61
2024/02/08 01:39:24;;;;;;;4.33;3.00;;;;;16.00;99200.00;;;;2068215;28;20245;-60
2024/02/08 01:40:26;;;;;;;8.40;3.70;;;;;16.00;99199.00;;;;2082883;28;20290;-59
2024/02/08 01:41:26;;;;;;;4.20;3.70;;;;;16.00;99206.00;;;;2082673;28;20225;-61
2024/02/08 01:42:27;;;;;;;4.17;3.43;;;;;16.00;99210.00;;;;2076394;28;20830;-60
2024/02/08 01:43:31;;;;;;;5.33;2.80;;;;;16.00;99204.00;;;;2076757;28;20222;-60
2024/02/08 01:44:32;;;;;;;4.97;3.30;;;;;16.00;99221.00;;;;2066252;28;20340;-59
2024/02/08 01:45:34;;;;;;;5.63;3.43;;;;;16.00;99223.00;;;;2076067;28;20226;-59
2024/02/08 01:46:38;;;;;;;5.15;3.50;;;;;16.00;99227.00;;;;2074828;28;20288;-60
2024/02/08 01:47:38;;;;;;;4.70;3.05;;;;;16.00;99220.00;;;;2077358;28;20240;-60
2024/02/08 01:48:44;;;;;;;5.40;3.00;;;;;16.00;99229.00;;;;2076407;28;20233;-59
2024/02/08 01:49:46;;;;;;;4.45;2.97;;;;;16.00;99218.00;;;;2066347;28;20281;-60
2024/02/08 01:50:56;;;;;;;4.00;3.30;;;;;16.00;99208.00;;;;2076655;28;20918;-59
2024/02/08 01:52:03;;;;;;;3.58;2.72;;;;;16.00;99212.00;;;;2065846;28;20229;-60
2024/02/08 01:53:03;;;;;;;4.95;3.15;;;;;16.00;99208.00;;;;2061130;28;20218;-60
2024/02/08 01:54:08;;;;;;;5.37;3.47;;;;;16.00;99208.00;;;;2075283;28;20217;-59
2024/02/08 01:55:09;;;;;;;4.30;3.00;;;;;16.00;99212.00;;;;2070722;28;20220;-61
2024/02/08 01:56:11;;;;;;;5.50;3.47;;;;;15.30;99194.00;;;;2066895;28;20742;-60
2024/02/08 01:57:11;;;;;;;6.00;3.10;;;;;16.00;99205.00;;;;2072997;28;20448;-61
2024/02/08 01:58:12;;;;;;;6.00;3.20;;;;;16.00;99214.00;;;;2071277;28;20214;-60
2024/02/08 01:59:13;;;;;;;4.27;2.97;;;;;16.00;99210.00;;;;2052105;28;20773;-59
2024/02/08 02:00:13;;;;;;;3.90;2.60;;;;;16.00;99229.00;;;;2084670;28;20242;-61
2024/02/08 02:01:14;;;;;;;6.07;3.37;;;;;16.00;99202.00;;;;2076171;28;20595;-59
2024/02/08 02:02:14;;;;;;;4.90;3.13;;;;;16.00;99205.00;;;;2076117;28;20206;-59
2024/02/08 02:03:15;;;;;;;4.60;3.03;;;;;16.00;99204.00;;;;2077080;28;20244;-59
2024/02/08 02:04:16;;;;;;;3.55;2.85;;;;;16.00;99193.00;;;;2068023;28;20254;-60
2024/02/08 02:05:17;;;;;;;4.50;3.20;;;;;16.00;99194.00;;;;2082001;28;20251;-59
2024/02/08 02:06:18;;;;;;;5.85;3.53;;;;;16.00;99210.00;;;;2074905;28;20773;-60
2024/02/08 02:07:19;;;;;;;5.03;2.80;;;;;16.00;99228.00;;;;2075868;28;20206;-61
2024/02/08 02:08:22;;;;;;;4.22;3.30;;;;;16.00;99208.00;;;;2077112;28;20257;-60
2024/02/08 02:09:23;;;;;;;6.60;3.47;;;;;16.00;99209.00;;;;2064744;28;20328;-59
2024/02/08 02:10:29;;;;;;;4.57;3.17;;;;;16.00;99215.00;;;;2067327;28;20717;-59
2024/02/08 02:11:35;;;;;;;5.55;3.22;;;;;16.00;99211.00;;;;2074361;28;20221;-61
2024/02/08 02:24:15;;;;;;;4.75;3.20;;;;;15.90;99202.00;;;;2054088;28;20226;-61
2024/02/08 02:25:16;;;;;;;5.20;3.20;;;;;16.00;99195.00;;;;2075147;28;20644;-59
2024/02/08 02:26:18;;;;;;;4.73;3.17;;;;;16.00;99186.00;;;;2075434;28;20217;-60
2024/02/08 02:27:18;;;;;;;4.45;3.22;;;;;16.00;99181.00;;;;2078032;28;20308;-60
2024/02/08 02:28:19;;;;;;;4.07;3.20;;;;;16.00;99182.00;;;;2057231;28;20996;-61
2024/02/08 02:29:21;;;;;;;4.40;3.00;;;;;16.00;99145.00;;;;2055329;28;20211;-59
2024/02/08 02:30:23;;;;;;;4.28;2.95;;;;;16.00;99170.00;;;;2076839;28;20459;-59
2024/02/08 02:31:23;;;;;;;4.55;3.58;;;;;16.00;99179.00;;;;2072603;28;20233;-59
2024/02/08 02:32:27;;;;;;;5.33;3.63;;;;;16.00;99185.00;;;;2074912;28;20202;-60
2024/02/08 02:33:27;;;;;;;6.45;3.40;;;;;16.00;99185.00;;;;2075841;28;20467;-59
2024/02/08 02:34:30;;;;;;;4.13;2.73;;;;;16.00;99181.00;;;;2068267;28;20920;-60
2024/02/08 02:35:31;;;;;;;4.95;3.40;;;;;16.00;99192.00;;;;2085067;28;20311;-60
2024/02/08 02:36:32;;;;;;;4.95;2.88;;;;;16.00;99193.00;;;;2081886;28;20946;-60
2024/02/08 02:37:33;;;;;;;4.73;3.10;;;;;16.00;99165.00;;;;2077818;28;20240;-59
2024/02/08 02:38:37;;;;;;;4.18;3.17;;;;;16.00;99185.00;;;;2077701;28;20245;-60
2024/02/08 02:39:37;;;;;;;4.97;3.72;;;;;16.00;99188.00;;;;2068100;28;21094;-60
2024/02/08 02:40:39;;;;;;;6.23;3.67;;;;;16.00;99179.00;;;;2087803;28;20224;-60
2024/02/08 02:41:40;;;;;;;3.55;2.75;;;;;16.00;99171.00;;;;2082077;28;20241;-59
2024/02/08 02:42:44;;;;;;;5.37;3.80;;;;;16.00;99167.00;;;;2077715;28;20624;-60
2024/02/08 02:43:45;;;;;;;4.32;3.17;;;;;16.00;99048.00;;;;2078682;28;20218;-61
2024/02/08 02:44:45;;;;;;;7.00;3.90;;;;;16.00;99162.00;;;;2067119;28;22032;-59
2024/02/08 02:45:45;;;;;;;4.97;3.50;;;;;16.00;99164.00;;;;2076627;28;20252;-60
2024/02/08 02:46:46;;;;;;;4.73;3.53;;;;;16.00;99163.00;;;;2081021;28;20233;-60
2024/02/08 02:47:46;;;;;;;4.37;3.23;;;;;16.00;99160.00;;;;2078089;28;20209;-60
2024/02/08 02:48:46;;;;;;;6.90;3.20;;;;;16.00;99167.00;;;;2078661;28;20209;-59
2024/02/08 02:49:47;;;;;;;4.53;2.97;;;;;16.00;99165.00;;;;2072744;28;20307;-59
2024/02/08 02:50:51;;;;;;;3.83;2.70;;;;;16.00;99162.00;;;;2086064;28;20213;-59
2024/02/08 02:51:52;;;;;;;5.45;3.15;;;;;16.00;99158.00;;;;2080341;28;20221;-60
2024/02/08 02:52:52;;;;;;;4.10;2.88;;;;;16.00;99162.00;;;;2078408;28;20227;-60
2024/02/08 02:53:53;;;;;;;4.27;3.33;;;;;16.00;99160.00;;;;2077476;28;20210;-59
2024/02/08 02:54:53;;;;;;;4.30;3.30;;;;;16.00;99167.00;;;;2072400;28;20328;-59
2024/02/08 02:55:58;;;;;;;7.13;3.83;;;;;16.00;98982.00;;;;2084626;28;20554;-60
2024/02/08 02:56:59;;;;;;;4.75;3.40;;;;;16.00;99168.00;;;;2078749;28;20252;-60
2024/02/08 02:58:00;;;;;;;4.82;3.08;;;;;16.00;99227.00;;;;2078633;28;20846;-59
2024/02/08 02:59:03;;;;;;;5.23;3.20;;;;;16.00;99162.00;;;;2075480;28;20255;-60
2024/02/08 03:00:15;;;;;;;4.82;3.38;;;;;16.00;99157.00;;;;2068370;28;20224;-60
2024/02/08 03:01:15;;;;;;;4.20;3.35;;;;;16.00;99158.00;;;;2067081;28;20596;-61
2024/02/08 03:02:17;;;;;;;4.40;3.47;;;;;16.00;99162.00;;;;2077191;28;20233;-60
2024/02/08 03:03:18;;;;;;;4.53;3.13;;;;;16.00;99146.00;;;;2071007;28;20210;-59
2024/02/08 03:04:19;;;;;;;4.30;3.10;;;;;16.00;99153.00;;;;2066766;28;20224;-60
2024/02/08 03:05:20;;;;;;;4.30;3.10;;;;;15.60;99152.00;;;;2078335;28;20220;-60
2024/02/08 03:06:21;;;;;;;4.78;3.28;;;;;16.00;99154.00;;;;2076298;28;20305;-60
2024/02/08 03:07:21;;;;;;;3.33;2.93;;;;;16.00;99156.00;;;;2078368;28;20699;-60
2024/02/08 03:08:24;;;;;;;5.90;2.90;;;;;16.00;99159.00;;;;2077581;28;20773;-59
2024/02/08 03:09:27;;;;;;;4.45;3.38;;;;;16.00;99158.00;;;;2066943;28;20214;-61
2024/02/08 03:10:29;;;;;;;5.30;3.30;;;;;16.00;99155.00;;;;2077373;28;20214;-60
2024/02/08 03:11:32;;;;;;;5.45;3.25;;;;;16.00;99165.00;;;;2078210;28;20675;-59
2024/02/08 03:12:32;;;;;;;4.30;3.10;;;;;16.00;99170.00;;;;2078455;28;20964;-59
2024/02/08 03:13:34;;;;;;;4.10;3.03;;;;;16.00;99175.00;;;;2076995;28;20252;-61
2024/02/08 03:14:35;;;;;;;4.70;3.40;;;;;16.00;99161.00;;;;2070897;28;20237;-60
2024/02/08 03:15:38;;;;;;;4.77;3.03;;;;;16.00;99162.00;;;;2085421;28;20220;-60
2024/02/08 03:16:41;;;;;;;4.05;2.80;;;;;16.00;99157.00;;;;2079113;28;20299;-60
2024/02/08 03:17:41;;;;;;;3.80;2.47;;;;;16.00;99161.00;;;;2074318;28;20229;-60
2024/02/08 03:18:46;;;;;;;4.63;2.90;;;;;16.00;99153.00;;;;2074434;28;20217;-59
2024/02/08 03:19:46;;;;;;;4.78;3.10;;;;;16.00;99147.00;;;;2068218;28;20222;-60
2024/02/08 03:20:47;;;;;;;5.77;3.53;;;;;16.00;99144.00;;;;2078253;28;20222;-59
2024/02/08 03:21:49;;;;;;;4.77;3.10;;;;;16.00;99154.00;;;;2078116;28;20234;-59
2024/02/08 03:22:52;;;;;;;5.30;3.40;;;;;16.00;99145.00;;;;2077666;28;20217;-60
2024/02/08 03:23:56;;;;;;;4.35;3.25;;;;;16.00;99148.00;;;;2078306;28;20229;-60
2024/02/08 03:24:56;;;;;;;5.32;3.35;;;;;16.00;99142.00;;;;2071910;28;20294;-59
2024/02/08 03:25:56;;;;;;;3.83;2.93;;;;;16.00;99147.00;;;;2080504;28;21011;-59
2024/02/08 03:26:57;;;;;;;4.80;3.33;;;;;16.00;99145.00;;;;2079002;28;20292;-60
2024/02/08 03:27:57;;;;;;;4.13;3.33;;;;;16.00;99009.00;;;;2076209;28;20241;-61
2024/02/08 03:28:58;;;;;;;5.20;3.67;;;;;16.00;99142.00;;;;2078322;28;20219;-60
2024/02/08 03:30:02;;;;;;;3.77;3.03;;;;;16.00;99141.00;;;;2073602;28;20225;-60
2024/02/08 03:31:02;;;;;;;4.65;3.58;;;;;16.00;99147.00;;;;2085841;28;20689;-59
2024/02/08 03:32:03;;;;;;;4.23;3.07;;;;;16.00;99148.00;;;;2078354;28;20222;-59
2024/02/08 03:33:12;;;;;;;4.10;3.43;;;;;16.00;99158.00;;;;2077854;28;20217;-59
2024/02/08 03:34:29;;;;;;;4.30;3.28;;;;;16.00;99158.00;;;;2063963;28;20269;-60
2024/02/08 03:35:32;;;;;;;4.00;3.00;;;;;16.00;99153.00;;;;2084264;28;20307;-58
2024/02/08 03:36:32;;;;;;;4.18;3.28;;;;;16.00;99148.00;;;;2079047;28;20229;-60
2024/02/08 03:37:33;;;;;;;5.03;3.10;;;;;16.00;99149.00;;;;2076463;28;20225;-60
2024/02/08 03:38:33;;;;;;;3.90;2.73;;;;;16.00;99144.00;;;;2077620;28;20275;-59
2024/02/08 03:39:35;;;;;;;3.90;3.20;;;;;16.00;99137.00;;;;2070701;28;20724;-59
2024/02/08 03:40:36;;;;;;;4.15;3.45;;;;;16.00;99145.00;;;;2085766;28;20860;-59
2024/02/08 03:41:36;;;;;;;7.45;3.88;;;;;16.00;99143.00;;;;2084025;28;20225;-60
2024/02/08 03:42:37;;;;;;;4.43;3.33;;;;;16.00;99151.00;;;;2078222;28;21003;-60
2024/02/08 03:43:38;;;;;;;4.60;3.20;;;;;16.00;99144.00;;;;2077548;28;20434;-60
2024/02/08 03:44:38;;;;;;;4.43;3.37;;;;;15.90;99139.00;;;;2071478;28;20224;-61
2024/02/08 03:45:40;;;;;;;5.03;3.27;;;;;16.00;99142.00;;;;2084575;28;20517;-60
2024/02/08 03:46:41;;;;;;;5.63;3.15;;;;;16.00;99124.00;;;;2080554;28;20218;-59
2024/02/08 03:47:42;;;;;;;5.10;3.80;;;;;16.00;99131.00;;;;2078010;28;20229;-60
2024/02/08 03:48:46;;;;;;;5.40;3.33;;;;;15.90;99129.00;;;;2077451;28;20600;-60
2024/02/08 03:49:51;;;;;;;3.95;2.95;;;;;16.00;99133.00;;;;2071416;28;20223;-59
2024/02/08 03:50:51;;;;;;;4.45;3.17;;;;;15.90;99130.00;;;;2084629;28;20335;-60
2024/02/08 03:51:53;;;;;;;4.00;3.10;;;;;16.00;99129.00;;;;2080121;28;20682;-59
2024/02/08 03:52:54;;;;;;;4.38;2.80;;;;;15.90;99125.00;;;;2079367;28;20221;-60
2024/02/08 03:53:54;;;;;;;4.00;2.97;;;;;15.90;99134.00;;;;2072866;28;20222;-60
2024/02/08 03:54:54;;;;;;;4.50;3.10;;;;;15.90;99135.00;;;;2065663;28;20214;-60
2024/02/08 03:55:55;;;;;;;4.33;3.10;;;;;15.90;99131.00;;;;2075964;28;20341;-59
2024/02/08 03:56:59;;;;;;;4.18;3.05;;;;;16.00;99130.00;;;;2078262;28;20266;-60
2024/02/08 03:58:00;;;;;;;4.97;3.20;;;;;15.90;99144.00;;;;2077292;28;20331;-60
2024/02/08 03:59:07;;;;;;;4.10;3.15;;;;;16.00;99131.00;;;;2078000;28;20217;-60
2024/02/08 04:00:13;;;;;;;4.72;3.13;;;;;15.90;99122.00;;;;2073330;28;20209;-60
2024/02/08 04:01:15;;;;;;;3.83;2.90;;;;;15.90;99184.00;;;;2077175;28;20235;-60
2024/02/08 04:02:18;;;;;;;5.00;3.28;;;;;15.90;99132.00;;;;2076518;28;20618;-61
2024/02/08 04:03:43;;;;;;;4.63;3.28;;;;;15.90;99123.00;;;;2077698;28;20217;-60
2024/02/08 04:05:05;;;;;;;4.35;3.20;;;;;15.90;99124.00;;;;2066938;28;20263;-59
2024/02/08 04:06:26;;;;;;;4.00;3.10;;;;;15.90;99125.00;;;;2076457;28;20756;-61
2024/02/08 04:07:45;;;;;;;4.82;3.25;;;;;15.90;99124.00;;;;2076456;28;20225;-60
2024/02/08 04:10:18;;;;;;;4.15;2.72;;;;;15.90;99127.00;;;;2067245;28;20225;-60
2024/02/08 04:53:38;;;;;;;4.35;2.97;;;;;15.90;99117.00;;;;2077476;28;20660;-60
2024/02/08 04:54:40;;;;;;;4.78;3.00;;;;;15.90;99112.00;;;;2064433;28;20348;-59
2024/02/08 04:55:40;;;;;;;4.47;3.13;;;;;15.90;99119.00;;;;2076870;28;20213;-59
2024/02/08 04:56:41;;;;;;;4.10;2.87;;;;;15.90;99112.00;;;;2075330;28;20840;-59
2024/02/08 04:57:41;;;;;;;4.27;3.10;;;;;15.90;99106.00;;;;2077528;28;20691;-59
2024/02/08 04:58:45;;;;;;;3.77;2.90;;;;;15.90;99106.00;;;;2076460;28;20841;-58
2024/02/08 04:59:45;;;;;;;3.65;2.90;;;;;15.90;99112.00;;;;2067761;28;20232;-58
2024/02/08 05:00:46;;;;;;;5.10;3.27;;;;;15.90;99107.00;;;;2077216;28;20228;-59
2024/02/08 05:01:46;;;;;;;4.70;3.00;;;;;15.90;99113.00;;;;2079497;28;20218;-59
2024/02/08 05:02:49;;;;;;;3.73;2.80;;;;;15.90;99116.00;;;;2077191;28;20250;-60
2024/02/08 05:03:49;;;;;;;3.90;2.95;;;;;15.80;99117.00;;;;2076910;28;20221;-60
2024/02/08 05:04:50;;;;;;;4.13;2.90;;;;;15.90;99113.00;;;;2065605;28;20712;-62
2024/02/08 05:05:50;;;;;;;4.37;2.97;;;;;15.90;99105.00;;;;2075329;28;20624;-61
2024/02/08 05:06:50;;;;;;;3.93;3.40;;;;;15.90;99121.00;;;;2077361;28;20569;-58
2024/02/08 05:07:51;;;;;;;5.30;2.90;;;;;15.90;99118.00;;;;2077254;28;20220;-61
2024/02/08 05:08:57;;;;;;;3.93;2.90;;;;;15.90;99123.00;;;;2076330;28;20264;-59
2024/02/08 05:09:58;;;;;;;3.78;2.95;;;;;15.90;99116.00;;;;2066615;28;20556;-60
2024/02/08 05:10:59;;;;;;;3.97;3.28;;;;;15.90;99115.00;;;;2076875;28;20217;-60
2024/02/08 05:11:59;;;;;;;5.23;3.20;;;;;15.90;99110.00;;;;2076879;28;20813;-59
2024/02/08 05:13:04;;;;;;;3.83;3.03;;;;;15.90;99106.00;;;;2076810;28;20225;-58
2024/02/08 05:14:04;;;;;;;4.00;2.95;;;;;15.90;99111.00;;;;2076754;28;20270;-58
2024/02/08 05:15:12;;;;;;;3.90;3.10;;;;;15.90;99116.00;;;;2066811;28;20642;-60
2024/02/08 05:16:15;;;;;;;4.20;3.30;;;;;15.90;99107.00;;;;2073774;28;20233;-59
2024/02/08 05:17:16;;;;;;;4.30;3.40;;;;;15.90;99103.00;;;;2076897;28;20248;-58
2024/02/08 05:18:16;;;;;;;3.70;3.10;;;;;15.90;99106.00;;;;2075369;28;20593;-59
2024/02/08 05:19:16;;;;;;;4.00;2.90;;;;;15.90;99102.00;;;;2067226;28;20226;-59
2024/02/08 05:20:17;;;;;;;4.40;2.93;;;;;15.90;99101.00;;;;2084399;28;20212;-60
2024/02/08 05:21:17;;;;;;;4.40;3.40;;;;;15.90;99107.00;;;;2082013;28;20308;-59
2024/02/08 05:22:17;;;;;;;4.33;3.37;;;;;15.90;99091.00;;;;2078234;28;20217;-60
2024/02/08 05:23:18;;;;;;;3.83;2.90;;;;;15.90;99098.00;;;;2077463;28;20519;-60
2024/02/08 05:24:18;;;;;;;4.57;3.07;;;;;15.90;99091.00;;;;2066790;28;20393;-60
2024/02/08 05:25:21;;;;;;;4.60;3.47;;;;;15.90;98931.00;;;;2076941;28;20229;-59
2024/02/08 05:26:25;;;;;;;4.20;3.30;;;;;15.90;99096.00;;;;2075633;28;20225;-59
2024/02/08 05:27:25;;;;;;;3.83;3.08;;;;;15.90;99093.00;;;;2075878;28;20214;-59
2024/02/08 05:28:26;;;;;;;5.73;3.40;;;;;15.90;99081.00;;;;2077483;28;20217;-59
2024/02/08 05:29:28;;;;;;;3.80;3.00;;;;;15.90;99095.00;;;;2066772;28;20222;-59
2024/02/08 05:30:28;;;;;;;4.10;2.97;;;;;15.90;99088.00;;;;2077419;28;20252;-59
2024/02/08 05:31:29;;;;;;;3.57;3.10;;;;;15.90;99093.00;;;;2076912;28;20215;-61
2024/02/08 05:32:30;;;;;;;4.68;3.42;;;;;15.90;99087.00;;;;2076753;28;20785;-61
2024/02/08 05:33:30;;;;;;;5.13;3.40;;;;;15.90;99087.00;;;;2075750;28;20236;-60
2024/02/08 05:34:33;;;;;;;4.00;3.10;;;;;15.90;99084.00;;;;2066516;28;20230;-59
2024/02/08 05:35:33;;;;;;;5.07;3.45;;;;;15.90;99092.00;;;;2075490;28;20214;-59
2024/02/08 05:36:34;;;;;;;4.97;3.67;;;;;15.90;99095.00;;;;2075273;28;20205;-59
2024/02/08 05:37:34;;;;;;;4.03;3.10;;;;;15.90;99101.00;;;;2077062;28;20224;-59
2024/02/08 05:38:40;;;;;;;4.80;3.20;;;;;15.90;99098.00;;;;2076942;28;20754;-60
2024/02/08 05:39:40;;;;;;;5.03;3.30;;;;;15.90;98973.00;;;;2065633;28;20306;-60
2024/02/08 05:40:43;;;;;;;4.17;3.30;;;;;15.90;99086.00;;;;2077292;28;20560;-59
2024/02/08 05:41:44;;;;;;;3.65;2.92;;;;;15.90;99088.00;;;;2076546;28;20690;-60
2024/02/08 05:42:44;;;;;;;5.03;3.33;;;;;15.90;99077.00;;;;2077341;28;20231;-59
2024/02/08 05:43:44;;;;;;;3.70;2.63;;;;;15.90;99076.00;;;;2075120;28;20238;-60
2024/02/08 05:44:45;;;;;;;3.90;3.10;;;;;15.90;99073.00;;;;2066720;28;20253;-59
2024/02/08 05:45:45;;;;;;;4.27;3.30;;;;;15.90;99072.00;;;;2076981;28;20222;-59
2024/02/08 05:46:49;;;;;;;3.83;2.90;;;;;15.90;99074.00;;;;2072764;28;20257;-59
2024/02/08 05:47:50;;;;;;;3.92;3.35;;;;;15.90;99072.00;;;;2072185;28;20222;-59
2024/02/08 05:48:51;;;;;;;2.83;2.50;;;;;15.90;99108.00;;;;2075669;28;20371;-59
2024/02/08 05:49:53;;;;;;;4.50;3.30;;;;;15.90;99082.00;;;;2065932;28;20244;-59
2024/02/08 05:50:56;;;;;;;4.93;3.15;;;;;15.90;99082.00;;;;2075234;28;20920;-60
2024/02/08 05:52:00;;;;;;;4.03;3.08;;;;;15.90;99127.00;;;;2076255;28;20280;-60
2024/02/08 05:53:06;;;;;;;4.97;3.05;;;;;15.90;99088.00;;;;2076715;28;20313;-60
2024/02/08 05:54:06;;;;;;;4.28;3.10;;;;;15.90;99080.00;;;;2076595;28;20218;-59
2024/02/08 05:55:12;;;;;;;4.00;3.00;;;;;15.90;99084.00;;;;2066774;28;20781;-59
2024/02/08 05:56:15;;;;;;;3.78;2.92;;;;;15.90;99077.00;;;;2074878;28;20214;-59
2024/02/08 05:57:15;;;;;;;5.90;3.30;;;;;15.90;99071.00;;;;2077193;28;20282;-59
2024/02/08 05:58:18;;;;;;;4.80;3.60;;;;;15.90;99065.00;;;;2077946;28;20242;-61
2024/02/08 05:59:19;;;;;;;3.90;2.80;;;;;15.90;99062.00;;;;2066643;28;20787;-60
2024/02/08 06:00:45;;;;;;;5.00;3.20;;;;;15.90;99058.00;;;;2077105;28;20230;-60
2024/02/08 06:01:47;;;;;;;4.18;3.20;;;;;15.90;99063.00;;;;2072092;28;20225;-59
2024/02/08 06:02:47;;;;;;;3.60;2.92;;;;;15.90;99061.00;;;;2075824;28;20225;-59
2024/02/08 06:03:47;;;;;;;3.60;2.87;;;;;15.90;99062.00;;;;2074398;28;20595;-60
2024/02/08 06:04:59;;;;;;;4.30;3.57;;;;;15.90;99066.00;;;;2066012;28;20218;-60
2024/02/08 06:06:16;;;;;;;4.70;3.40;;;;;15.90;99070.00;;;;2074890;28;20248;-60